Time;durP1;ratioP1;P1;durP2;ratioP2;P2;SDS_P1;SDS_P2;PMS_P1;PMS_P2;Temp;Humidity;BMP_temperature;BMP_pressure;BME280_temperature;BME280_humidity;BME280_pressure;Samples;Min_cycle;Max_cycle;Signal;HPM_P1;HPM_P2
2022/06/18 00:00:45;;;;;;;2.00;1.90;;;;;;;19.07;99.22;100746.94;5004292;28;20273;-75
2022/06/18 00:03:11;;;;;;;2.53;2.30;;;;;;;19.06;99.33;100751.34;5021638;28;20228;-75
2022/06/18 00:05:38;;;;;;;2.00;1.90;;;;;;;19.04;99.49;100747.94;5005778;28;20322;-75
2022/06/18 00:08:11;;;;;;;3.00;2.10;;;;;;;19.02;99.85;100748.00;5006547;28;21058;-75
2022/06/18 00:10:36;;;;;;;3.37;2.20;;;;;;;18.97;100.00;100746.47;5000466;28;20186;-75
2022/06/18 00:13:40;;;;;;;4.10;2.10;;;;;;;18.89;100.00;100742.31;5021334;28;20863;-76
2022/06/18 00:16:10;;;;;;;2.33;2.13;;;;;;;18.82;100.00;100743.47;5021726;28;20193;-75
2022/06/18 00:18:35;;;;;;;2.93;2.30;;;;;;;18.74;100.00;100743.72;5013854;28;20255;-75
2022/06/18 00:21:01;;;;;;;2.23;2.03;;;;;;;18.70;100.00;100736.00;5006105;28;20183;-75
2022/06/18 00:23:28;;;;;;;3.00;2.70;;;;;;;18.65;100.00;100744.03;5008696;28;20208;-76
2022/06/18 00:25:54;;;;;;;3.00;2.70;;;;;;;18.58;100.00;100748.66;5005767;28;20184;-77
2022/06/18 00:28:24;;;;;;;2.27;2.10;;;;;;;18.55;100.00;100742.66;5009247;28;20204;-76
2022/06/18 00:30:50;;;;;;;3.73;2.30;;;;;;;18.50;100.00;100749.81;5006114;28;20186;-76
2022/06/18 00:33:16;;;;;;;2.30;2.10;;;;;;;18.43;100.00;100743.94;5002836;28;20291;-76
2022/06/18 00:35:43;;;;;;;2.63;2.43;;;;;;;18.37;100.00;100747.63;5036719;28;20279;-76
2022/06/18 00:38:19;;;;;;;2.97;2.30;;;;;;;18.32;100.00;100748.69;5019847;28;20208;-76
2022/06/18 00:40:45;;;;;;;2.30;2.13;;;;;;;18.26;100.00;100744.53;5017652;28;20199;-76
2022/06/18 00:43:23;;;;;;;2.30;2.10;;;;;;;18.23;100.00;100755.09;5000682;28;20796;-75
2022/06/18 00:45:52;;;;;;;2.20;2.10;;;;;;;18.22;100.00;100748.16;5005569;28;20175;-76
2022/06/18 00:48:20;;;;;;;2.80;2.50;;;;;;;18.21;100.00;100749.03;5004943;28;20183;-76
2022/06/18 00:51:08;;;;;;;2.70;2.50;;;;;;;18.21;100.00;100751.66;5006821;28;20206;-76
2022/06/18 00:53:42;;;;;;;2.63;2.43;;;;;;;18.17;100.00;100753.53;4998967;28;20214;-76
2022/06/18 00:56:31;;;;;;;2.90;2.60;;;;;;;18.16;100.00;100756.19;5000763;28;20195;-75
2022/06/18 00:59:11;;;;;;;3.00;2.70;;;;;;;18.09;100.00;100752.91;5002077;28;20295;-76
2022/06/18 01:01:42;;;;;;;5.03;2.50;;;;;;;18.04;100.00;100757.47;5003037;28;20711;-76
2022/06/18 01:04:28;;;;;;;2.43;2.23;;;;;;;18.01;100.00;100765.44;5019259;28;20184;-76
2022/06/18 01:07:17;;;;;;;2.50;2.23;;;;;;;17.96;100.00;100755.91;5002309;28;20624;-75
2022/06/18 01:09:46;;;;;;;3.50;2.60;;;;;;;17.93;100.00;100755.16;5002493;28;20219;-76
2022/06/18 01:12:11;;;;;;;3.67;3.03;;;;;;;17.90;100.00;100750.91;5001375;28;20216;-75
2022/06/18 01:14:37;;;;;;;2.97;2.77;;;;;;;17.89;100.00;100749.19;5005031;28;20188;-76
2022/06/18 01:17:04;;;;;;;2.57;2.37;;;;;;;17.86;100.00;100745.78;5004355;28;20642;-76
2022/06/18 01:19:35;;;;;;;3.20;2.60;;;;;;;17.83;100.00;100738.88;5015011;28;20204;-78
2022/06/18 01:22:12;;;;;;;2.97;2.43;;;;;;;17.84;100.00;100743.22;5001578;28;20258;-75
2022/06/18 01:24:40;;;;;;;2.50;2.30;;;;;;;17.85;100.00;100733.63;5003814;28;20214;-76
2022/06/18 01:27:08;;;;;;;2.73;2.50;;;;;;;17.85;100.00;100725.78;5006112;28;20200;-75
2022/06/18 01:29:34;;;;;;;3.27;2.60;;;;;;;17.83;100.00;100731.91;5003979;28;20165;-76
2022/06/18 01:32:03;;;;;;;2.60;2.40;;;;;;;17.85;100.00;100729.22;5002867;28;20217;-75
2022/06/18 01:34:29;;;;;;;2.60;2.40;;;;;;;17.88;100.00;100720.41;5002238;28;20181;-76
2022/06/18 01:36:59;;;;;;;2.70;2.43;;;;;;;17.88;100.00;100716.03;5004103;28;20322;-76
2022/06/18 01:39:28;;;;;;;2.87;2.47;;;;;;;17.89;100.00;100715.13;5004399;28;20299;-76
2022/06/18 01:42:00;;;;;;;3.13;2.50;;;;;;;17.90;100.00;100713.38;5034235;28;20215;-75
2022/06/18 01:44:34;;;;;;;2.53;2.33;;;;;;;17.89;100.00;100711.66;5034033;28;20193;-75
2022/06/18 01:47:11;;;;;;;2.43;2.23;;;;;;;17.87;100.00;100708.22;5005492;28;20189;-75
2022/06/18 01:49:43;;;;;;;3.90;2.40;;;;;;;17.82;100.00;100709.25;5004706;28;20180;-74
2022/06/18 01:52:10;;;;;;;6.23;2.77;;;;;;;17.76;100.00;100704.19;5019849;28;20263;-74
2022/06/18 01:54:44;;;;;;;2.90;2.67;;;;;;;17.71;100.00;100703.47;5015567;28;20189;-76
2022/06/18 01:57:14;;;;;;;3.13;2.77;;;;;;;17.65;100.00;100699.31;5005348;28;20188;-75
2022/06/18 01:59:51;;;;;;;2.53;2.23;;;;;;;17.60;100.00;100696.00;5004181;28;20204;-75
2022/06/18 02:02:17;;;;;;;2.43;2.23;;;;;;;17.56;100.00;100693.50;5004738;28;20249;-75
2022/06/18 02:04:43;;;;;;;3.37;2.03;;;;;;;17.52;100.00;100697.97;5000857;28;20189;-75
2022/06/18 02:07:09;;;;;;;2.20;2.00;;;;;;;17.48;100.00;100688.50;5019153;28;21029;-75
2022/06/18 02:09:51;;;;;;;3.40;2.60;;;;;;;17.47;100.00;100681.59;5003208;28;20270;-75
2022/06/18 02:12:19;;;;;;;2.63;2.43;;;;;;;17.43;100.00;100683.44;5001137;28;20207;-75
2022/06/18 02:14:50;;;;;;;3.73;2.50;;;;;;;17.40;100.00;100683.50;5005903;28;20246;-75
2022/06/18 02:17:20;;;;;;;2.50;2.30;;;;;;;17.37;100.00;100675.78;5001991;28;20187;-75
2022/06/18 02:19:52;;;;;;;2.60;2.40;;;;;;;17.36;100.00;100682.75;5002362;28;20206;-75
2022/06/18 02:22:21;;;;;;;2.83;2.23;;;;;;;17.35;100.00;100683.66;5003739;28;20204;-75
2022/06/18 02:24:46;;;;;;;4.20;2.53;;;;;;;17.34;100.00;100683.72;5000990;28;20173;-76
2022/06/18 02:27:14;;;;;;;3.00;2.40;;;;;;;17.31;100.00;100679.47;4996604;28;20196;-75
2022/06/18 02:29:42;;;;;;;2.50;2.30;;;;;;;17.29;100.00;100680.38;5002542;28;20641;-76
2022/06/18 02:32:17;;;;;;;3.23;2.40;;;;;;;17.27;100.00;100679.56;5003827;28;20295;-75
2022/06/18 02:34:43;;;;;;;2.80;2.40;;;;;;;17.23;100.00;100678.81;5002151;28;20172;-75
2022/06/18 02:37:26;;;;;;;3.77;2.60;;;;;;;17.21;100.00;100668.41;5018038;28;20262;-74
2022/06/18 02:39:51;;;;;;;2.17;2.00;;;;;;;17.19;100.00;100675.44;5001523;28;20187;-75
2022/06/18 02:42:19;;;;;;;3.00;2.67;;;;;;;17.18;100.00;100671.13;5000431;28;20235;-75
2022/06/18 02:44:47;;;;;;;2.20;2.00;;;;;;;17.18;100.00;100673.72;4999460;28;20213;-75
2022/06/18 02:47:14;;;;;;;2.97;2.13;;;;;;;17.18;100.00;100672.84;5002096;28;20184;-75
2022/06/18 02:49:45;;;;;;;2.50;2.30;;;;;;;17.18;100.00;100673.72;5002091;28;20226;-75
2022/06/18 02:52:11;;;;;;;3.00;2.07;;;;;;;17.18;100.00;100672.84;5016404;28;20213;-75
2022/06/18 02:54:37;;;;;;;3.00;2.60;;;;;;;17.17;100.00;100668.53;4997519;28;20192;-75
2022/06/18 02:57:09;;;;;;;3.23;2.43;;;;;;;17.16;100.00;100672.91;5001668;28;20238;-75
2022/06/18 02:59:35;;;;;;;2.63;2.43;;;;;;;17.13;100.00;100683.47;5001419;28;20220;-75
2022/06/18 03:02:00;;;;;;;2.27;2.10;;;;;;;17.12;100.00;100681.75;4998854;28;20210;-75
2022/06/18 03:04:26;;;;;;;2.50;2.30;;;;;;;17.12;100.00;100683.53;5001303;28;20199;-77
2022/06/18 03:06:51;;;;;;;2.40;2.20;;;;;;;17.11;100.00;100681.81;4996913;28;20191;-75
2022/06/18 03:09:16;;;;;;;2.43;2.23;;;;;;;17.09;100.00;100686.22;5001999;28;20172;-74
2022/06/18 03:14:25;;;;;;;3.00;2.17;;;;;;;17.10;100.00;100687.94;4999956;28;20215;-75
2022/06/18 03:16:51;;;;;;;2.93;2.33;;;;;;;17.08;100.00;100690.59;5002503;28;20237;-75
2022/06/18 03:19:39;;;;;;;2.70;2.50;;;;;;;17.08;100.00;100688.00;5005155;28;20772;-75
2022/06/18 03:22:13;;;;;;;2.30;2.10;;;;;;;17.03;100.00;100698.56;4998697;28;20628;-75
2022/06/18 03:24:41;;;;;;;2.63;1.90;;;;;;;17.01;100.00;100689.94;5006418;28;20189;-75
2022/06/18 03:27:07;;;;;;;2.80;1.90;;;;;;;16.99;100.00;100690.84;5009533;28;20722;-75
2022/06/18 03:29:33;;;;;;;1.90;1.80;;;;;;;16.98;100.00;100681.31;5005939;28;20172;-76
2022/06/18 03:32:00;;;;;;;2.10;1.90;;;;;;;16.99;100.00;100690.84;5004345;28;20257;-75
2022/06/18 03:34:26;;;;;;;1.90;1.80;;;;;;;17.00;100.00;100692.56;5024023;28;20227;-75
2022/06/18 03:36:51;;;;;;;2.27;2.03;;;;;;;17.04;100.00;100699.44;5023307;28;20172;-75
2022/06/18 03:39:17;;;;;;;2.33;1.80;;;;;;;17.08;99.19;100694.97;5007441;28;20192;-75
2022/06/18 03:41:42;;;;;;;2.13;1.60;;;;;;;17.13;99.22;100700.94;5005763;28;20935;-75
2022/06/18 03:44:08;;;;;;;2.00;1.90;;;;;;;17.21;98.93;100706.78;4998815;28;20188;-75
2022/06/18 03:46:36;;;;;;;1.80;1.70;;;;;;;17.29;98.66;100703.94;5012632;28;20184;-75
2022/06/18 03:49:04;;;;;;;2.03;1.93;;;;;;;17.39;97.87;100702.75;5001322;28;20180;-75
2022/06/18 03:51:30;;;;;;;1.80;1.70;;;;;;;17.52;98.03;100703.22;5007187;28;20181;-76
2022/06/18 03:53:57;;;;;;;1.73;1.63;;;;;;;17.66;97.26;100698.41;5002996;28;20189;-74
2022/06/18 03:56:27;;;;;;;2.20;2.10;;;;;;;17.87;96.88;100706.47;5021352;28;20204;-75
2022/06/18 03:58:53;;;;;;;2.20;2.10;;;;;;;18.06;96.63;100706.75;4998752;28;20194;-75
2022/06/18 04:01:21;;;;;;;2.27;2.07;;;;;;;18.28;96.13;100714.72;5004015;28;20262;-76
2022/06/18 04:03:47;;;;;;;1.80;1.70;;;;;;;18.45;95.02;100713.28;5016932;28;20188;-75
2022/06/18 04:06:15;;;;;;;1.80;1.70;;;;;;;18.56;94.24;100707.69;5002210;28;20414;-75
2022/06/18 04:08:42;;;;;;;1.90;1.73;;;;;;;18.66;93.64;100702.97;5019525;28;20798;-76
2022/06/18 04:11:09;;;;;;;1.80;1.70;;;;;;;18.74;93.32;100703.53;5008449;28;20183;-75
2022/06/18 04:13:34;;;;;;;1.70;1.60;;;;;;;18.84;93.48;100707.50;5000189;28;20259;-75
2022/06/18 04:16:00;;;;;;;1.73;1.63;;;;;;;18.92;92.77;100709.84;5005279;28;20190;-76
2022/06/18 04:18:26;;;;;;;2.80;2.10;;;;;;;18.98;92.49;100716.69;5001995;28;20239;-75
2022/06/18 04:20:53;;;;;;;1.77;1.67;;;;;;;19.10;91.18;100710.97;5003610;28;20235;-76
2022/06/18 04:23:18;;;;;;;2.00;1.90;;;;;;;19.36;89.92;100709.13;5005019;28;20438;-76
2022/06/18 04:25:44;;;;;;;1.77;1.67;;;;;;;19.50;88.93;100711.22;5018286;28;20707;-76
2022/06/18 04:28:15;;;;;;;1.90;1.80;;;;;;;19.64;88.70;100702.78;5004773;28;20184;-76
2022/06/18 04:30:41;;;;;;;1.63;1.53;;;;;;;19.74;88.09;100706.72;5003952;28;20211;-76
2022/06/18 04:33:07;;;;;;;1.80;1.70;;;;;;;19.89;87.21;100707.06;5020496;28;20681;-75
2022/06/18 04:35:33;;;;;;;1.73;1.63;;;;;;;20.06;86.60;100704.56;5004891;28;21056;-76
2022/06/18 04:37:58;;;;;;;1.90;1.80;;;;;;;20.31;86.45;100702.69;5022006;28;20228;-76
2022/06/18 04:40:32;;;;;;;1.90;1.80;;;;;;;20.79;85.10;100708.53;5002373;28;20268;-76
2022/06/18 04:43:08;;;;;;;1.60;1.50;;;;;;;21.51;83.72;100701.66;5000365;28;20235;-76
2022/06/18 04:45:35;;;;;;;1.63;1.53;;;;;;;22.18;82.41;100703.69;5005803;28;20178;-76
2022/06/18 04:48:01;;;;;;;2.33;1.73;;;;;;;22.82;80.43;100698.63;5002175;28;20199;-76
2022/06/18 04:50:31;;;;;;;1.97;1.80;;;;;;;23.31;78.55;100704.81;5002944;28;20188;-75
2022/06/18 04:52:56;;;;;;;3.20;1.90;;;;;;;23.72;76.74;100705.09;5001851;28;20204;-75
2022/06/18 04:55:22;;;;;;;2.60;2.13;;;;;;;24.14;75.73;100696.56;5002755;28;20194;-76
2022/06/18 04:57:47;;;;;;;1.80;1.70;;;;;;;24.72;74.57;100697.50;4995399;28;20248;-75
2022/06/18 05:00:14;;;;;;;2.30;2.07;;;;;;;25.29;73.50;100697.50;5015178;28;20200;-76
2022/06/18 05:02:39;;;;;;;1.90;1.80;;;;;;;25.81;72.38;100704.69;5003533;28;20289;-76
2022/06/18 05:05:10;;;;;;;2.10;1.90;;;;;;;26.28;72.06;100689.19;5002012;28;20276;-75
2022/06/18 05:07:36;;;;;;;1.77;1.67;;;;;;;26.63;72.00;100696.50;5001107;28;20176;-76
2022/06/18 05:10:01;;;;;;;1.70;1.60;;;;;;;27.05;71.57;100701.53;5017117;28;20261;-74
2022/06/18 05:12:27;;;;;;;1.70;1.60;;;;;;;27.52;70.74;100695.56;5004276;28;20606;-75
2022/06/18 05:14:52;;;;;;;1.83;1.73;;;;;;;27.97;70.22;100697.53;5006246;28;20583;-76
2022/06/18 05:17:26;;;;;;;2.80;1.73;;;;;;;28.44;69.27;100692.19;5001096;28;20173;-75
2022/06/18 05:19:52;;;;;;;1.60;1.50;;;;;;;28.88;68.67;100695.81;5007597;28;20291;-75
2022/06/18 05:22:17;;;;;;;2.10;1.63;;;;;;;29.28;67.82;100693.56;5003444;28;20208;-76
2022/06/18 05:24:43;;;;;;;1.70;1.60;;;;;;;29.71;67.13;100695.38;5005130;28;20176;-76
2022/06/18 05:27:19;;;;;;;2.00;1.90;;;;;;;30.16;66.66;100693.44;5016433;28;20216;-76
2022/06/18 05:29:44;;;;;;;1.90;1.80;;;;;;;30.51;66.02;100684.19;5018017;28;20187;-75
2022/06/18 05:32:10;;;;;;;1.57;1.47;;;;;;;30.85;64.19;100682.09;5005978;28;20200;-75
2022/06/18 05:34:35;;;;;;;1.70;1.60;;;;;;;31.11;62.91;100684.25;5005658;28;20204;-76
2022/06/18 05:37:00;;;;;;;1.90;1.80;;;;;;;31.31;61.82;100682.47;5000839;28;20219;-76
2022/06/18 05:39:26;;;;;;;1.97;1.70;;;;;;;31.52;61.48;100683.31;5003672;28;20676;-76
2022/06/18 05:41:51;;;;;;;1.60;1.50;;;;;;;31.79;60.64;100677.28;5019060;28;20728;-76
2022/06/18 05:44:16;;;;;;;1.67;1.57;;;;;;;32.07;59.97;100675.50;5004861;28;20889;-76
2022/06/18 05:46:42;;;;;;;1.70;1.60;;;;;;;32.39;58.89;100673.50;5019363;28;20242;-76
2022/06/18 05:49:09;;;;;;;1.83;1.73;;;;;;;32.68;58.48;100667.16;5017655;28;20175;-77
2022/06/18 05:51:34;;;;;;;1.58;1.48;;;;;;;32.94;58.44;100667.31;5007981;28;20188;-75
2022/06/18 05:53:59;;;;;;;1.90;1.80;;;;;;;33.17;57.33;100671.38;5005980;28;20211;-76
2022/06/18 05:56:25;;;;;;;1.80;1.70;;;;;;;33.36;56.55;100667.72;5002843;28;20204;-75
2022/06/18 05:58:50;;;;;;;1.95;1.80;;;;;;;33.54;56.23;100665.03;5003169;28;20751;-75
2022/06/18 06:01:18;;;;;;;2.95;1.80;;;;;;;33.64;55.48;100655.06;5021067;28;20872;-76
2022/06/18 06:03:44;;;;;;;1.90;1.80;;;;;;;33.80;55.42;100658.88;5006162;28;20235;-76
2022/06/18 06:06:09;;;;;;;2.00;1.90;;;;;;;34.00;54.57;100665.72;5003044;28;20216;-74
2022/06/18 06:08:36;;;;;;;2.22;1.90;;;;;;;34.24;54.47;100653.44;5000667;28;20180;-76
2022/06/18 06:13:45;;;;;;;2.13;1.92;;;;;;;34.58;54.38;100651.75;5003296;28;20258;-75
2022/06/18 06:16:11;;;;;;;2.20;1.85;;;;;;;34.82;54.64;100645.63;5004921;28;20274;-75
2022/06/18 06:18:37;;;;;;;1.88;1.77;;;;;;;35.00;53.72;100639.31;5000959;28;20279;-76
2022/06/18 06:21:03;;;;;;;2.25;2.05;;;;;;;35.17;53.80;100637.47;5020808;28;20192;-76
2022/06/18 06:23:28;;;;;;;2.33;1.70;;;;;;;35.35;53.42;100646.22;5017563;28;20221;-76
2022/06/18 06:25:55;;;;;;;1.80;1.70;;;;;;;35.54;51.97;100633.47;4996336;28;20562;-75
2022/06/18 06:28:25;;;;;;;2.88;2.20;;;;;;;35.60;52.43;100634.63;5000160;28;20190;-75
2022/06/18 06:30:52;;;;;;;2.53;2.00;;;;;;;35.81;52.40;100626.00;5027858;28;20190;-76
2022/06/18 06:33:18;;;;;;;2.40;2.20;;;;;;;36.05;52.66;100630.53;5023885;28;20211;-76
2022/06/18 06:35:44;;;;;;;2.30;2.10;;;;;;;36.34;52.36;100622.81;5003485;28;20263;-76
2022/06/18 06:38:11;;;;;;;2.65;2.00;;;;;;;36.53;51.87;100627.00;5004998;28;20650;-76
2022/06/18 06:40:36;;;;;;;3.28;2.03;;;;;;;36.71;51.50;100629.41;5019062;28;20586;-76
2022/06/18 06:43:03;;;;;;;1.92;1.42;;;;;;;36.90;51.40;100625.41;5003910;28;20204;-77
2022/06/18 06:45:32;;;;;;;2.88;2.35;;;;;;;37.03;50.96;100632.94;5004280;28;20211;-75
2022/06/18 06:47:59;;;;;;;2.10;2.00;;;;;;;37.14;50.78;100629.81;5006147;28;20180;-76
2022/06/18 06:50:28;;;;;;;2.00;1.83;;;;;;;37.28;50.21;100628.19;5003033;28;20295;-76
2022/06/18 06:52:53;;;;;;;1.85;1.75;;;;;;;37.36;50.35;100624.59;5006447;28;20220;-76
2022/06/18 06:58:11;;;;;;;1.80;1.70;;;;;;;37.66;49.56;100628.19;5005059;28;20210;-76
2022/06/18 07:00:41;;;;;;;1.95;1.63;;;;;;;37.61;49.66;100627.91;5000919;28;20211;-76
2022/06/18 07:03:06;;;;;;;1.95;1.77;;;;;;;37.66;49.87;100627.38;5000506;28;20679;-77
2022/06/18 07:05:32;;;;;;;2.50;1.67;;;;;;;37.76;49.67;100627.94;5016117;28;20183;-78
2022/06/18 07:07:57;;;;;;;1.90;1.77;;;;;;;37.85;49.53;100634.09;4997433;28;20185;-77
2022/06/18 07:10:23;;;;;;;1.90;1.80;;;;;;;37.88;49.28;100628.31;5017229;28;20215;-79
2022/06/18 07:12:48;;;;;;;1.83;1.73;;;;;;;37.92;49.89;100626.94;5006140;28;20600;-77
2022/06/18 07:15:14;;;;;;;2.85;2.10;;;;;;;37.81;49.41;100625.53;5001125;28;20188;-76
2022/06/18 07:17:40;;;;;;;2.00;1.90;;;;;;;37.63;48.96;100633.13;5015382;28;20185;-79
2022/06/18 07:20:09;;;;;;;2.20;2.10;;;;;;;37.47;48.60;100628.72;5000582;28;20215;-78
2022/06/18 07:22:35;;;;;;;1.92;1.70;;;;;;;37.35;48.64;100628.31;4998864;28;20827;-78
2022/06/18 07:25:02;;;;;;;2.22;1.95;;;;;;;37.33;48.41;100624.94;4997688;28;20188;-77
2022/06/18 07:27:29;;;;;;;1.98;1.88;;;;;;;37.32;48.42;100625.97;5005579;28;20184;-77
2022/06/18 07:29:55;;;;;;;2.20;2.05;;;;;;;37.23;48.27;100619.78;4998470;28;20239;-77
2022/06/18 07:32:21;;;;;;;4.20;2.10;;;;;;;36.98;48.33;100624.53;5003153;28;20208;-77
2022/06/18 07:34:46;;;;;;;3.40;1.98;;;;;;;36.76;48.64;100627.00;5008300;28;20211;-76
2022/06/18 07:37:12;;;;;;;1.92;1.80;;;;;;;36.82;48.55;100623.59;5009909;28;20624;-76
2022/06/18 07:39:37;;;;;;;1.98;1.77;;;;;;;36.85;49.30;100614.31;5020145;28;20204;-76
2022/06/18 07:42:04;;;;;;;2.13;1.90;;;;;;;36.92;49.17;100618.84;5005293;28;20204;-78
2022/06/18 07:44:33;;;;;;;2.45;1.98;;;;;;;36.90;49.01;100617.31;4999689;28;20255;-77
2022/06/18 07:46:59;;;;;;;1.90;1.80;;;;;;;36.75;49.00;100614.56;5002727;28;20184;-76
2022/06/18 07:49:25;;;;;;;2.22;2.03;;;;;;;36.64;48.86;100615.81;5005502;28;20679;-76
2022/06/18 07:51:51;;;;;;;2.20;2.05;;;;;;;36.68;49.58;100614.41;4999543;28;20666;-77
2022/06/18 07:54:18;;;;;;;1.90;1.80;;;;;;;36.72;50.20;100606.81;5027483;28;20195;-79
2022/06/18 07:56:44;;;;;;;2.10;1.90;;;;;;;36.46;49.80;100607.97;5005728;28;20184;-77
2022/06/18 07:59:10;;;;;;;2.60;2.00;;;;;;;36.19;49.69;100602.00;4998216;28;20552;-77
2022/06/18 08:01:35;;;;;;;2.17;1.90;;;;;;;36.07;50.18;100606.09;5003012;28;20192;-75
2022/06/18 08:04:01;;;;;;;2.10;1.90;;;;;;;35.91;50.19;100598.91;4997244;28;20192;-76
2022/06/18 08:06:26;;;;;;;2.63;2.33;;;;;;;35.64;50.06;100595.56;5005131;28;20543;-76
2022/06/18 08:08:52;;;;;;;2.40;2.20;;;;;;;35.37;49.80;100598.47;5009988;28;20322;-78
2022/06/18 08:11:19;;;;;;;2.42;2.08;;;;;;;35.16;50.49;100590.91;5002501;28;20586;-76
2022/06/18 08:13:46;;;;;;;1.92;1.83;;;;;;;35.17;51.36;100591.75;5015293;28;20220;-76
2022/06/18 08:16:13;;;;;;;2.20;1.88;;;;;;;35.25;51.78;100595.28;5010180;28;20189;-77
2022/06/18 08:18:39;;;;;;;2.25;2.05;;;;;;;35.28;51.64;100585.19;5022162;28;20250;-78
2022/06/18 08:21:34;;;;;;;1.90;1.80;;;;;;;35.29;52.20;100586.88;5004644;28;20308;-77
2022/06/18 08:24:03;;;;;;;1.95;1.80;;;;;;;35.25;52.78;100587.19;5002605;28;20220;-77
2022/06/18 08:26:30;;;;;;;2.10;2.00;;;;;;;35.20;52.87;100580.66;5025896;28;20196;-78
2022/06/18 08:28:55;;;;;;;1.90;1.80;;;;;;;35.09;52.90;100579.13;5024496;28;20215;-77
2022/06/18 08:31:21;;;;;;;1.88;1.70;;;;;;;35.06;52.73;100579.47;5006563;28;20188;-77
2022/06/18 08:33:47;;;;;;;1.80;1.70;;;;;;;34.91;52.65;100577.41;5007165;28;20812;-78
2022/06/18 08:36:15;;;;;;;2.35;1.95;;;;;;;34.75;52.76;100575.56;5010965;28;20199;-77
2022/06/18 08:38:43;;;;;;;2.20;2.10;;;;;;;34.59;52.51;100562.91;5004967;28;20254;-76
2022/06/18 08:41:27;;;;;;;2.30;1.73;;;;;;;34.50;53.04;100563.91;5004078;28;20208;-77
2022/06/18 08:44:08;;;;;;;2.08;1.98;;;;;;;34.41;53.09;100557.66;5022336;28;20223;-78
2022/06/18 08:47:15;;;;;;;2.00;1.90;;;;;;;34.27;53.10;100564.47;5004239;28;20192;-76
2022/06/18 08:50:14;;;;;;;2.30;2.10;;;;;;;34.13;53.16;100557.88;4994739;28;20192;-78
2022/06/18 08:53:14;;;;;;;2.30;2.10;;;;;;;33.96;53.50;100553.44;5022603;28;20266;-77
2022/06/18 08:56:23;;;;;;;2.42;2.20;;;;;;;33.74;53.25;100548.44;5006539;28;20216;-78
2022/06/18 08:59:06;;;;;;;1.92;1.70;;;;;;;33.62;54.02;100554.22;5004440;28;20270;-77
2022/06/18 09:01:37;;;;;;;2.50;2.25;;;;;;;33.54;54.35;100555.88;4999662;28;20191;-77
2022/06/18 09:04:02;;;;;;;2.15;2.05;;;;;;;33.43;54.44;100554.28;5019073;28;20184;-78
2022/06/18 09:06:47;;;;;;;2.33;2.22;;;;;;;33.33;54.34;100556.22;5004502;28;20908;-77
2022/06/18 09:09:25;;;;;;;2.35;2.08;;;;;;;33.24;53.74;100544.59;5022254;28;20279;-78
2022/06/18 09:12:01;;;;;;;2.40;2.17;;;;;;;33.25;54.22;100545.41;5004467;28;20204;-79
2022/06/18 09:14:57;;;;;;;2.17;1.98;;;;;;;33.30;54.23;100543.09;5023515;28;20242;-77
2022/06/18 09:17:22;;;;;;;2.08;1.88;;;;;;;33.31;54.79;100539.44;5021675;28;20184;-76
2022/06/18 09:19:57;;;;;;;2.13;1.92;;;;;;;33.35;54.98;100542.63;5003809;28;20207;-76
2022/06/18 09:22:25;;;;;;;2.17;2.08;;;;;;;33.41;57.05;100539.38;5010481;28;20199;-76
2022/06/18 09:24:57;;;;;;;2.03;1.92;;;;;;;33.44;57.16;100534.53;5000305;28;20372;-76
2022/06/18 09:27:30;;;;;;;2.20;2.10;;;;;;;33.42;56.40;100533.00;4997033;28;20211;-75
2022/06/18 09:30:06;;;;;;;1.90;1.80;;;;;;;33.39;55.59;100527.94;5000787;28;20237;-76
2022/06/18 09:32:41;;;;;;;2.05;1.95;;;;;;;33.38;55.26;100513.69;5035275;28;20207;-77
2022/06/18 09:35:15;;;;;;;2.38;1.95;;;;;;;33.41;55.10;100517.91;5002825;28;20595;-78
2022/06/18 09:37:56;;;;;;;2.03;1.92;;;;;;;33.38;54.35;100515.53;5025496;28;20184;-76
2022/06/18 09:40:29;;;;;;;1.92;1.83;;;;;;;33.40;53.95;100513.53;5001738;28;20193;-75
2022/06/18 09:43:00;;;;;;;2.00;1.90;;;;;;;33.38;54.10;100518.22;5005411;28;20211;-76
2022/06/18 09:45:32;;;;;;;2.00;1.90;;;;;;;33.40;53.82;100513.53;5004565;28;20734;-75
2022/06/18 09:48:00;;;;;;;1.70;1.60;;;;;;;33.36;53.15;100496.91;5002904;28;20546;-76
2022/06/18 09:50:56;;;;;;;2.05;1.90;;;;;;;33.38;53.04;100494.91;5006308;28;20177;-78
2022/06/18 09:53:33;;;;;;;2.00;1.90;;;;;;;33.47;52.87;100492.28;5016175;28;20208;-78
2022/06/18 09:56:01;;;;;;;1.80;1.70;;;;;;;33.52;53.18;100490.81;5023235;28;20203;-77
2022/06/18 09:58:33;;;;;;;1.95;1.85;;;;;;;33.53;52.97;100497.00;5019001;28;20203;-78
2022/06/18 10:01:00;;;;;;;1.77;1.67;;;;;;;33.49;53.22;100488.44;5005709;28;20188;-77
2022/06/18 10:06:57;;;;;;;1.90;1.80;;;;;;;33.55;52.98;100474.41;4995881;28;20299;-77
2022/06/18 10:09:38;;;;;;;2.45;1.80;;;;;;;33.64;52.60;100471.72;5010943;28;20176;-78
2022/06/18 10:12:15;;;;;;;1.98;1.83;;;;;;;33.74;52.92;100464.41;5005885;28;20208;-77
2022/06/18 10:14:40;;;;;;;1.80;1.70;;;;;;;33.83;53.44;100471.50;5008076;28;20179;-76
2022/06/18 10:17:28;;;;;;;1.95;1.77;;;;;;;33.92;53.07;100468.84;5001035;28;20199;-78
2022/06/18 10:20:09;;;;;;;1.70;1.60;;;;;;;33.91;50.83;100465.34;4995568;28;20216;-76
2022/06/18 10:22:43;;;;;;;2.03;1.90;;;;;;;33.72;50.03;100464.56;5009709;28;20210;-78
2022/06/18 10:25:36;;;;;;;2.08;1.98;;;;;;;33.60;49.72;100457.81;5006268;28;20195;-77
2022/06/18 10:28:22;;;;;;;2.05;1.95;;;;;;;33.57;50.06;100456.28;5007260;28;20211;-78
2022/06/18 10:31:18;;;;;;;2.33;1.70;;;;;;;33.56;50.11;100459.13;5002704;28;20192;-76
2022/06/18 10:33:49;;;;;;;2.42;2.20;;;;;;;33.41;50.50;100443.63;4998462;28;20196;-76
2022/06/18 10:36:33;;;;;;;2.10;1.90;;;;;;;33.44;50.92;100429.91;5007718;28;20228;-77
2022/06/18 10:39:20;;;;;;;2.00;1.90;;;;;;;33.56;51.09;100426.94;5008211;28;20234;-76
2022/06/18 10:42:11;;;;;;;2.20;2.00;;;;;;;33.72;51.29;100426.16;5002112;28;20648;-77
2022/06/18 10:44:52;;;;;;;2.58;2.38;;;;;;;33.74;50.29;100430.34;5015789;28;20181;-76
2022/06/18 10:47:18;;;;;;;1.80;1.70;;;;;;;33.66;50.85;100424.13;5001686;28;20639;-77
2022/06/18 10:49:47;;;;;;;2.33;2.13;;;;;;;33.65;51.12;100425.97;5000353;28;20195;-76
2022/06/18 10:52:23;;;;;;;2.17;2.00;;;;;;;33.63;50.84;100414.56;5017686;28;20242;-77
2022/06/18 10:54:49;;;;;;;1.77;1.67;;;;;;;33.66;51.03;100408.84;5001316;28;20575;-77
2022/06/18 10:57:24;;;;;;;2.15;1.88;;;;;;;33.73;51.48;100407.22;5001548;28;20658;-77
2022/06/18 10:59:49;;;;;;;1.95;1.85;;;;;;;33.77;51.73;100405.03;5004662;28;20593;-76
2022/06/18 11:02:37;;;;;;;2.08;1.98;;;;;;;33.90;52.29;100401.91;5009858;28;20234;-76
2022/06/18 11:05:13;;;;;;;1.98;1.88;;;;;;;34.03;52.32;100399.59;5021154;28;20952;-76
2022/06/18 11:07:38;;;;;;;2.00;1.85;;;;;;;34.17;52.29;100403.50;5031713;28;20222;-76
2022/06/18 11:10:16;;;;;;;5.10;2.33;;;;;;;34.24;51.93;100398.28;5035605;28;20215;-77
2022/06/18 11:12:55;;;;;;;1.90;1.80;;;;;;;34.27;51.97;100389.06;5006543;28;20258;-77
2022/06/18 11:15:34;;;;;;;1.88;1.77;;;;;;;34.34;52.29;100392.72;5020532;28;20274;-76
2022/06/18 11:18:20;;;;;;;2.28;1.80;;;;;;;34.42;52.27;100394.63;5003934;28;20180;-76
2022/06/18 11:20:57;;;;;;;2.08;1.98;;;;;;;34.52;52.17;100389.06;5014205;28;20183;-76
2022/06/18 11:23:23;;;;;;;2.05;1.70;;;;;;;34.56;52.32;100393.13;4997257;28;20226;-77
2022/06/18 11:25:52;;;;;;;2.05;1.88;;;;;;;34.60;52.63;100381.84;5016367;28;20224;-77
2022/06/18 11:28:42;;;;;;;1.95;1.80;;;;;;;34.64;51.38;100376.97;5020561;28;20180;-78
2022/06/18 11:31:09;;;;;;;1.83;1.73;;;;;;;34.55;51.06;100372.63;5010945;28;20185;-77
2022/06/18 11:33:55;;;;;;;2.05;1.90;;;;;;;34.52;51.79;100379.19;5008414;28;20192;-77
2022/06/18 11:36:33;;;;;;;1.60;1.50;;;;;;;34.59;51.99;100369.41;5008423;28;20670;-76
2022/06/18 11:39:00;;;;;;;2.75;2.17;;;;;;;34.57;51.22;100362.53;5033600;28;20208;-76
2022/06/18 11:41:35;;;;;;;2.80;2.45;;;;;;;34.67;50.47;100359.69;5019640;28;20246;-76
2022/06/18 11:44:13;;;;;;;3.75;1.90;;;;;;;34.53;50.52;100356.69;5003754;28;20187;-76
2022/06/18 11:46:52;;;;;;;2.05;1.85;;;;;;;34.49;50.69;100349.97;5025416;28;20917;-76
2022/06/18 11:49:37;;;;;;;3.28;2.25;;;;;;;34.65;50.73;100341.88;5016153;28;20259;-77